sensor_id;sensor_type;location;lat;lon;timestamp;pressure;altitude;pressure_sealevel;temperature
74750;BMP280;63269;53.330;-6.288;2023-02-08T00:00:24;103296.22;;;21.23
74750;BMP280;63269;53.330;-6.288;2023-02-08T00:02:50;103288.97;;;21.23
74750;BMP280;63269;53.330;-6.288;2023-02-08T00:05:17;103286.31;;;21.23
74750;BMP280;63269;53.330;-6.288;2023-02-08T00:07:43;103286.31;;;21.23
74750;BMP280;63269;53.330;-6.288;2023-02-08T00:10:08;103288.97;;;21.23
74750;BMP280;63269;53.330;-6.288;2023-02-08T00:12:35;103288.22;;;21.23
74750;BMP280;63269;53.330;-6.288;2023-02-08T00:15:00;103290.53;;;21.24
74750;BMP280;63269;53.330;-6.288;2023-02-08T00:17:26;103289.34;;;21.25
74750;BMP280;63269;53.330;-6.288;2023-02-08T00:19:51;103287.47;;;21.26
74750;BMP280;63269;53.330;-6.288;2023-02-08T00:22:17;103287.47;;;21.26
74750;BMP280;63269;53.330;-6.288;2023-02-08T00:24:42;103285.19;;;21.24
74750;BMP280;63269;53.330;-6.288;2023-02-08T00:27:08;103282.50;;;21.24
74750;BMP280;63269;53.330;-6.288;2023-02-08T00:29:33;103276.78;;;21.26
74750;BMP280;63269;53.330;-6.288;2023-02-08T00:31:58;103276.78;;;21.26
74750;BMP280;63269;53.330;-6.288;2023-02-08T00:34:24;103277.19;;;21.24
74750;BMP280;63269;53.330;-6.288;2023-02-08T00:36:49;103270.66;;;21.25
74750;BMP280;63269;53.330;-6.288;2023-02-08T00:39:15;103262.28;;;21.27
74750;BMP280;63269;53.330;-6.288;2023-02-08T00:41:40;103269.16;;;21.28
74750;BMP280;63269;53.330;-6.288;2023-02-08T00:44:05;103260.41;;;21.27
74750;BMP280;63269;53.330;-6.288;2023-02-08T00:46:31;103255.81;;;21.28
74750;BMP280;63269;53.330;-6.288;2023-02-08T00:48:56;103255.81;;;21.28
74750;BMP280;63269;53.330;-6.288;2023-02-08T00:51:21;103244.00;;;21.29
74750;BMP280;63269;53.330;-6.288;2023-02-08T00:53:47;103244.00;;;21.29
74750;BMP280;63269;53.330;-6.288;2023-02-08T00:56:14;103227.22;;;21.28
74750;BMP280;63269;53.330;-6.288;2023-02-08T00:58:40;103227.22;;;21.28
74750;BMP280;63269;53.330;-6.288;2023-02-08T01:01:06;103227.59;;;21.30
74750;BMP280;63269;53.330;-6.288;2023-02-08T01:03:37;103223.00;;;21.31
74750;BMP280;63269;53.330;-6.288;2023-02-08T01:06:05;103228.75;;;21.29
74750;BMP280;63269;53.330;-6.288;2023-02-08T01:08:30;103228.75;;;21.29
74750;BMP280;63269;53.330;-6.288;2023-02-08T01:13:29;103220.34;;;21.31
74750;BMP280;63269;53.330;-6.288;2023-02-08T01:15:54;103218.47;;;21.31
74750;BMP280;63269;53.330;-6.288;2023-02-08T01:18:19;103218.47;;;21.31
74750;BMP280;63269;53.330;-6.288;2023-02-08T01:20:45;103210.06;;;21.33
74750;BMP280;63269;53.330;-6.288;2023-02-08T01:23:10;103203.19;;;21.32
74750;BMP280;63269;53.330;-6.288;2023-02-08T01:25:35;103201.28;;;21.32
74750;BMP280;63269;53.330;-6.288;2023-02-08T01:28:01;103201.28;;;21.32
74750;BMP280;63269;53.330;-6.288;2023-02-08T01:30:26;103195.94;;;21.32
74750;BMP280;63269;53.330;-6.288;2023-02-08T01:32:52;103191.38;;;21.33
74750;BMP280;63269;53.330;-6.288;2023-02-08T01:35:17;103191.38;;;21.33
74750;BMP280;63269;53.330;-6.288;2023-02-08T01:37:42;103186.81;;;21.33
74750;BMP280;63269;53.330;-6.288;2023-02-08T01:40:08;103186.41;;;21.35
74750;BMP280;63269;53.330;-6.288;2023-02-08T01:42:34;103185.28;;;21.36
74750;BMP280;63269;53.330;-6.288;2023-02-08T01:45:18;103185.28;;;21.36
74750;BMP280;63269;53.330;-6.288;2023-02-08T01:47:51;103166.59;;;21.36
74750;BMP280;63269;53.330;-6.288;2023-02-08T01:50:19;103168.13;;;21.37
74750;BMP280;63269;53.330;-6.288;2023-02-08T01:52:46;103154.78;;;21.37
74750;BMP280;63269;53.330;-6.288;2023-02-08T01:55:19;103154.78;;;21.37
74750;BMP280;63269;53.330;-6.288;2023-02-08T01:57:48;103158.22;;;21.37
74750;BMP280;63269;53.330;-6.288;2023-02-08T02:00:19;103149.44;;;21.37
74750;BMP280;63269;53.330;-6.288;2023-02-08T02:02:50;103143.31;;;21.36
74750;BMP280;63269;53.330;-6.288;2023-02-08T02:05:19;103137.56;;;21.38
74750;BMP280;63269;53.330;-6.288;2023-02-08T02:07:45;103137.56;;;21.38
74750;BMP280;63269;53.330;-6.288;2023-02-08T02:10:15;103131.50;;;21.37
74750;BMP280;63269;53.330;-6.288;2023-02-08T02:12:43;103126.19;;;21.41
74750;BMP280;63269;53.330;-6.288;2023-02-08T02:15:09;103123.50;;;21.41
74750;BMP280;63269;53.330;-6.288;2023-02-08T02:17:36;103116.25;;;21.42
74750;BMP280;63269;53.330;-6.288;2023-02-08T02:20:05;103116.97;;;21.42
74750;BMP280;63269;53.330;-6.288;2023-02-08T02:25:40;103112.41;;;21.43
74750;BMP280;63269;53.330;-6.288;2023-02-08T02:33:46;103096.81;;;21.41
74750;BMP280;63269;53.330;-6.288;2023-02-08T02:45:00;103083.44;;;21.41
74750;BMP280;63269;53.330;-6.288;2023-02-08T02:47:40;103083.44;;;21.41
74750;BMP280;63269;53.330;-6.288;2023-02-08T02:50:58;103068.91;;;21.42
74750;BMP280;63269;53.330;-6.288;2023-02-08T02:55:51;103062.44;;;21.43
74750;BMP280;63269;53.330;-6.288;2023-02-08T02:58:20;103055.56;;;21.42
74750;BMP280;63269;53.330;-6.288;2023-02-08T03:00:54;103061.69;;;21.43
74750;BMP280;63269;53.330;-6.288;2023-02-08T03:03:26;103050.63;;;21.44
74750;BMP280;63269;53.330;-6.288;2023-02-08T03:05:56;103054.06;;;21.45
74750;BMP280;63269;53.330;-6.288;2023-02-08T03:08:54;103044.13;;;21.45
74750;BMP280;63269;53.330;-6.288;2023-02-08T03:11:27;103044.13;;;21.45
74750;BMP280;63269;53.330;-6.288;2023-02-08T03:20:07;103035.38;;;21.45
74750;BMP280;63269;53.330;-6.288;2023-02-08T03:22:42;103035.38;;;21.45
74750;BMP280;63269;53.330;-6.288;2023-02-08T03:25:13;103019.72;;;21.43
74750;BMP280;63269;53.330;-6.288;2023-02-08T03:30:29;103019.34;;;21.45
74750;BMP280;63269;53.330;-6.288;2023-02-08T03:33:02;103019.34;;;21.45
74750;BMP280;63269;53.330;-6.288;2023-02-08T03:35:32;103014.75;;;21.45
74750;BMP280;63269;53.330;-6.288;2023-02-08T03:38:33;103012.88;;;21.46
74750;BMP280;63269;53.330;-6.288;2023-02-08T03:40:52;103014.75;;;21.45
74750;BMP280;63269;53.330;-6.288;2023-02-08T03:43:31;103008.25;;;21.46
74750;BMP280;63269;53.330;-6.288;2023-02-08T03:46:10;103008.25;;;21.46
74750;BMP280;63269;53.330;-6.288;2023-02-08T03:48:38;103006.75;;;21.45
74750;BMP280;63269;53.330;-6.288;2023-02-08T03:51:05;103006.38;;;21.47
74750;BMP280;63269;53.330;-6.288;2023-02-08T03:53:32;103004.84;;;21.46
74750;BMP280;63269;53.330;-6.288;2023-02-08T03:56:13;103015.88;;;21.48
74750;BMP280;63269;53.330;-6.288;2023-02-08T03:58:45;103023.16;;;21.47
74750;BMP280;63269;53.330;-6.288;2023-02-08T04:01:19;103030.41;;;21.47
74750;BMP280;63269;53.330;-6.288;2023-02-08T04:03:48;103013.59;;;21.46
74750;BMP280;63269;53.330;-6.288;2023-02-08T04:06:15;103008.25;;;21.46
74750;BMP280;63269;53.330;-6.288;2023-02-08T04:08:41;103008.25;;;21.46
74750;BMP280;63269;53.330;-6.288;2023-02-08T04:11:06;103010.91;;;21.46
74750;BMP280;63269;53.330;-6.288;2023-02-08T04:13:32;103010.56;;;21.48
74750;BMP280;63269;53.330;-6.288;2023-02-08T04:15:57;103011.72;;;21.47
74750;BMP280;63269;53.330;-6.288;2023-02-08T04:18:22;103008.66;;;21.48
74750;BMP280;63269;53.330;-6.288;2023-02-08T04:20:48;103008.66;;;21.48
74750;BMP280;63269;53.330;-6.288;2023-02-08T04:23:13;103008.25;;;21.46
74750;BMP280;63269;53.330;-6.288;2023-02-08T04:25:38;103016.25;;;21.46
74750;BMP280;63269;53.330;-6.288;2023-02-08T04:28:04;103039.16;;;21.47
74750;BMP280;63269;53.330;-6.288;2023-02-08T04:30:29;103041.09;;;21.47
74750;BMP280;63269;53.330;-6.288;2023-02-08T04:32:55;103044.13;;;21.49
74750;BMP280;63269;53.330;-6.288;2023-02-08T04:35:20;103044.13;;;21.49
74750;BMP280;63269;53.330;-6.288;2023-02-08T04:37:45;103052.53;;;21.47
74750;BMP280;63269;53.330;-6.288;2023-02-08T04:40:11;103076.94;;;21.49
74750;BMP280;63269;53.330;-6.288;2023-02-08T04:42:36;103087.63;;;21.49
74750;BMP280;63269;53.330;-6.288;2023-02-08T04:45:02;103087.63;;;21.49
74750;BMP280;63269;53.330;-6.288;2023-02-08T04:47:27;103092.59;;;21.47
74750;BMP280;63269;53.330;-6.288;2023-02-08T04:49:53;103081.53;;;21.49
74750;BMP280;63269;53.330;-6.288;2023-02-08T04:52:18;103072.75;;;21.48
74750;BMP280;63269;53.330;-6.288;2023-02-08T04:54:44;103072.75;;;21.48
74750;BMP280;63269;53.330;-6.288;2023-02-08T04:57:13;103058.63;;;21.48
74750;BMP280;63269;53.330;-6.288;2023-02-08T04:59:39;103052.16;;;21.49
74750;BMP280;63269;53.330;-6.288;2023-02-08T05:02:05;103030.38;;;21.50
74750;BMP280;63269;53.330;-6.288;2023-02-08T05:04:30;103030.38;;;21.50
74750;BMP280;63269;53.330;-6.288;2023-02-08T05:06:57;103008.28;;;21.50
74750;BMP280;63269;53.330;-6.288;2023-02-08T05:09:22;103008.28;;;21.50
74750;BMP280;63269;53.330;-6.288;2023-02-08T05:11:48;102994.53;;;21.51
74750;BMP280;63269;53.330;-6.288;2023-02-08T05:14:13;102994.53;;;21.51
74750;BMP280;63269;53.330;-6.288;2023-02-08T05:16:39;102968.94;;;21.50
74750;BMP280;63269;53.330;-6.288;2023-02-08T05:19:04;102968.94;;;21.50
74750;BMP280;63269;53.330;-6.288;2023-02-08T05:21:29;102955.25;;;21.48
74750;BMP280;63269;53.330;-6.288;2023-02-08T05:23:55;102956.38;;;21.47
74750;BMP280;63269;53.330;-6.288;2023-02-08T05:26:20;102956.38;;;21.47
74750;BMP280;63269;53.330;-6.288;2023-02-08T05:28:46;102946.09;;;21.46
74750;BMP280;63269;53.330;-6.288;2023-02-08T05:31:17;102946.09;;;21.46
74750;BMP280;63269;53.330;-6.288;2023-02-08T05:33:43;102954.06;;;21.42
74750;BMP280;63269;53.330;-6.288;2023-02-08T05:36:09;102958.28;;;21.39
74750;BMP280;63269;53.330;-6.288;2023-02-08T05:38:34;102958.28;;;21.39
74750;BMP280;63269;53.330;-6.288;2023-02-08T05:41:00;102965.19;;;21.33
74750;BMP280;63269;53.330;-6.288;2023-02-08T05:43:25;102965.19;;;21.33
74750;BMP280;63269;53.330;-6.288;2023-02-08T05:45:50;102955.25;;;21.30
74750;BMP280;63269;53.330;-6.288;2023-02-08T05:48:16;102936.91;;;21.25
74750;BMP280;63269;53.330;-6.288;2023-02-08T05:50:42;102936.91;;;21.25
74750;BMP280;63269;53.330;-6.288;2023-02-08T05:53:08;102935.81;;;21.19
74750;BMP280;63269;53.330;-6.288;2023-02-08T05:55:33;102935.81;;;21.19
74750;BMP280;63269;53.330;-6.288;2023-02-08T05:57:59;102932.72;;;21.13
74750;BMP280;63269;53.330;-6.288;2023-02-08T06:00:24;102942.28;;;21.11
74750;BMP280;63269;53.330;-6.288;2023-02-08T06:02:49;102938.47;;;21.08
74750;BMP280;63269;53.330;-6.288;2023-02-08T06:05:15;102940.75;;;21.03
74750;BMP280;63269;53.330;-6.288;2023-02-08T06:07:40;102940.75;;;21.03
74750;BMP280;63269;53.330;-6.288;2023-02-08T06:10:06;102932.75;;;20.99
74750;BMP280;63269;53.330;-6.288;2023-02-08T06:12:31;102904.91;;;20.96
74750;BMP280;63269;53.330;-6.288;2023-02-08T06:14:57;102898.03;;;20.95
74750;BMP280;63269;53.330;-6.288;2023-02-08T06:17:22;102898.03;;;20.95
74750;BMP280;63269;53.330;-6.288;2023-02-08T06:19:48;102894.97;;;20.90
74750;BMP280;63269;53.330;-6.288;2023-02-08T06:22:13;102905.28;;;20.88
74750;BMP280;63269;53.330;-6.288;2023-02-08T06:24:38;102905.28;;;20.88
74750;BMP280;63269;53.330;-6.288;2023-02-08T06:27:04;102925.47;;;20.85
74750;BMP280;63269;53.330;-6.288;2023-02-08T06:29:30;102915.56;;;20.82
74750;BMP280;63269;53.330;-6.288;2023-02-08T06:31:55;102915.56;;;20.82
74750;BMP280;63269;53.330;-6.288;2023-02-08T06:34:21;102912.91;;;20.78
74750;BMP280;63269;53.330;-6.288;2023-02-08T06:36:46;102903.75;;;20.76
74750;BMP280;63269;53.330;-6.288;2023-02-08T06:39:11;102904.13;;;20.74
74750;BMP280;63269;53.330;-6.288;2023-02-08T06:41:37;102904.13;;;20.74
74750;BMP280;63269;53.330;-6.288;2023-02-08T06:44:02;102900.69;;;20.70
74750;BMP280;63269;53.330;-6.288;2023-02-08T06:46:28;102898.41;;;20.65
74750;BMP280;63269;53.330;-6.288;2023-02-08T06:48:53;102923.16;;;20.66
74750;BMP280;63269;53.330;-6.288;2023-02-08T06:51:21;102914.03;;;20.63
74750;BMP280;63269;53.330;-6.288;2023-02-08T06:53:46;102912.47;;;20.62
74750;BMP280;63269;53.330;-6.288;2023-02-08T06:56:11;102906.78;;;20.64
74750;BMP280;63269;53.330;-6.288;2023-02-08T06:58:37;102907.16;;;20.66
74750;BMP280;63269;53.330;-6.288;2023-02-08T07:01:02;102906.41;;;20.69
74750;BMP280;63269;53.330;-6.288;2023-02-08T07:03:28;102906.41;;;20.69
74750;BMP280;63269;53.330;-6.288;2023-02-08T07:05:53;102903.38;;;20.74
74750;BMP280;63269;53.330;-6.288;2023-02-08T07:08:18;102903.38;;;20.74
74750;BMP280;63269;53.330;-6.288;2023-02-08T07:10:44;102898.41;;;20.76
74750;BMP280;63269;53.330;-6.288;2023-02-08T07:13:10;102894.59;;;20.81
74750;BMP280;63269;53.330;-6.288;2023-02-08T07:15:35;102899.16;;;20.84
74750;BMP280;63269;53.330;-6.288;2023-02-08T07:18:00;102899.16;;;20.84
74750;BMP280;63269;53.330;-6.288;2023-02-08T07:20:26;102887.38;;;20.85
74750;BMP280;63269;53.330;-6.288;2023-02-08T07:22:51;102896.88;;;20.86
74750;BMP280;63269;53.330;-6.288;2023-02-08T07:25:17;102896.91;;;20.89
74750;BMP280;63269;53.330;-6.288;2023-02-08T07:27:42;102898.03;;;20.92
74750;BMP280;63269;53.330;-6.288;2023-02-08T07:30:08;102893.47;;;20.92
74750;BMP280;63269;53.330;-6.288;2023-02-08T07:32:34;102898.41;;;20.94
74750;BMP280;63269;53.330;-6.288;2023-02-08T07:35:00;102887.00;;;20.93
74750;BMP280;63269;53.330;-6.288;2023-02-08T07:37:25;102894.22;;;20.96
74750;BMP280;63269;53.330;-6.288;2023-02-08T07:39:51;102893.09;;;20.97
74750;BMP280;63269;53.330;-6.288;2023-02-08T07:42:16;102877.84;;;20.98
74750;BMP280;63269;53.330;-6.288;2023-02-08T07:44:42;102888.88;;;21.00
74750;BMP280;63269;53.330;-6.288;2023-02-08T07:47:08;102878.22;;;21.00
74750;BMP280;63269;53.330;-6.288;2023-02-08T07:49:33;102878.97;;;21.00
74750;BMP280;63269;53.330;-6.288;2023-02-08T07:51:59;102867.94;;;21.02
74750;BMP280;63269;53.330;-6.288;2023-02-08T07:54:25;102874.03;;;21.03
74750;BMP280;63269;53.330;-6.288;2023-02-08T07:56:51;102880.91;;;21.04
74750;BMP280;63269;53.330;-6.288;2023-02-08T07:59:16;102869.06;;;21.05
74750;BMP280;63269;53.330;-6.288;2023-02-08T08:01:42;102869.81;;;21.05
74750;BMP280;63269;53.330;-6.288;2023-02-08T08:04:07;102872.50;;;21.05
74750;BMP280;63269;53.330;-6.288;2023-02-08T08:06:33;102864.88;;;21.07
74750;BMP280;63269;53.330;-6.288;2023-02-08T08:08:58;102875.16;;;21.09
74750;BMP280;63269;53.330;-6.288;2023-02-08T08:11:23;102865.25;;;21.09
74750;BMP280;63269;53.330;-6.288;2023-02-08T08:13:49;102859.91;;;21.09
74750;BMP280;63269;53.330;-6.288;2023-02-08T08:16:14;102849.97;;;21.10
74750;BMP280;63269;53.330;-6.288;2023-02-08T08:18:40;102854.19;;;21.11
74750;BMP280;63269;53.330;-6.288;2023-02-08T08:21:06;102853.06;;;21.12
74750;BMP280;63269;53.330;-6.288;2023-02-08T08:23:31;102839.31;;;21.13
74750;BMP280;63269;53.330;-6.288;2023-02-08T08:25:58;102827.13;;;21.12
74750;BMP280;63269;53.330;-6.288;2023-02-08T08:28:24;102819.50;;;21.14
74750;BMP280;63269;53.330;-6.288;2023-02-08T08:30:49;102800.81;;;21.14
74750;BMP280;63269;53.330;-6.288;2023-02-08T08:33:15;102821.78;;;21.16
74750;BMP280;63269;53.330;-6.288;2023-02-08T08:35:41;102808.44;;;21.16
74750;BMP280;63269;53.330;-6.288;2023-02-08T08:38:08;102789.34;;;21.17
74750;BMP280;63269;53.330;-6.288;2023-02-08T08:40:33;102789.34;;;21.17
74750;BMP280;63269;53.330;-6.288;2023-02-08T08:42:59;102788.22;;;21.18
74750;BMP280;63269;53.330;-6.288;2023-02-08T08:45:24;102788.22;;;21.18
74750;BMP280;63269;53.330;-6.288;2023-02-08T08:47:50;102772.59;;;21.20
74750;BMP280;63269;53.330;-6.288;2023-02-08T08:50:15;102762.28;;;21.23
74750;BMP280;63269;53.330;-6.288;2023-02-08T08:52:41;102767.25;;;21.24
74750;BMP280;63269;53.330;-6.288;2023-02-08T08:55:07;102763.38;;;21.25
74750;BMP280;63269;53.330;-6.288;2023-02-08T08:57:32;102763.38;;;21.25
74750;BMP280;63269;53.330;-6.288;2023-02-08T08:59:58;102774.84;;;21.26
74750;BMP280;63269;53.330;-6.288;2023-02-08T09:02:23;102768.34;;;21.27
74750;BMP280;63269;53.330;-6.288;2023-02-08T09:04:48;102777.13;;;21.27
74750;BMP280;63269;53.330;-6.288;2023-02-08T09:07:14;102769.50;;;21.26
74750;BMP280;63269;53.330;-6.288;2023-02-08T09:09:39;102780.94;;;21.26
74750;BMP280;63269;53.330;-6.288;2023-02-08T09:12:06;102773.34;;;21.25
74750;BMP280;63269;53.330;-6.288;2023-02-08T09:14:31;102774.47;;;21.24
74750;BMP280;63269;53.330;-6.288;2023-02-08T09:16:57;102752.75;;;21.22
74750;BMP280;63269;53.330;-6.288;2023-02-08T09:19:22;102764.56;;;21.20
74750;BMP280;63269;53.330;-6.288;2023-02-08T09:21:47;102758.88;;;21.18
74750;BMP280;63269;53.330;-6.288;2023-02-08T09:24:13;102751.97;;;21.17
74750;BMP280;63269;53.330;-6.288;2023-02-08T09:26:38;102751.97;;;21.17
74750;BMP280;63269;53.330;-6.288;2023-02-08T09:29:05;102750.09;;;21.14
74750;BMP280;63269;53.330;-6.288;2023-02-08T09:31:32;102753.91;;;21.13
74750;BMP280;63269;53.330;-6.288;2023-02-08T09:33:59;102746.31;;;21.12
74750;BMP280;63269;53.330;-6.288;2023-02-08T09:36:28;102731.78;;;21.09
74750;BMP280;63269;53.330;-6.288;2023-02-08T09:38:58;102734.50;;;21.06
74750;BMP280;63269;53.330;-6.288;2023-02-08T09:44:14;102737.56;;;21.04
74750;BMP280;63269;53.330;-6.288;2023-02-08T09:47:02;102714.28;;;21.01
74750;BMP280;63269;53.330;-6.288;2023-02-08T09:49:35;102702.84;;;20.97
74750;BMP280;63269;53.330;-6.288;2023-02-08T09:52:05;102715.84;;;20.95
74750;BMP280;63269;53.330;-6.288;2023-02-08T09:54:39;102700.22;;;20.93
74750;BMP280;63269;53.330;-6.288;2023-02-08T09:57:14;102700.22;;;20.93
74750;BMP280;63269;53.330;-6.288;2023-02-08T09:59:51;102686.50;;;20.88
74750;BMP280;63269;53.330;-6.288;2023-02-08T10:02:26;102689.56;;;20.86
74750;BMP280;63269;53.330;-6.288;2023-02-08T10:04:57;102689.16;;;20.84
74750;BMP280;63269;53.330;-6.288;2023-02-08T10:07:25;102689.16;;;20.84
74750;BMP280;63269;53.330;-6.288;2023-02-08T10:09:55;102678.13;;;20.82
74750;BMP280;63269;53.330;-6.288;2023-02-08T10:12:31;102678.13;;;20.82
74750;BMP280;63269;53.330;-6.288;2023-02-08T10:15:17;102675.47;;;20.78
74750;BMP280;63269;53.330;-6.288;2023-02-08T10:26:43;102666.38;;;20.69
74750;BMP280;63269;53.330;-6.288;2023-02-08T10:32:18;102653.38;;;20.67
74750;BMP280;63269;53.330;-6.288;2023-02-08T10:34:59;102657.59;;;20.65
74750;BMP280;63269;53.330;-6.288;2023-02-08T10:37:29;102657.59;;;20.65
74750;BMP280;63269;53.330;-6.288;2023-02-08T10:40:14;102650.34;;;20.62
74750;BMP280;63269;53.330;-6.288;2023-02-08T10:42:45;102650.34;;;20.62
74750;BMP280;63269;53.330;-6.288;2023-02-08T10:45:23;102641.97;;;20.59
74750;BMP280;63269;53.330;-6.288;2023-02-08T10:47:55;102635.09;;;20.58
74750;BMP280;63269;53.330;-6.288;2023-02-08T10:50:36;102635.09;;;20.58
74750;BMP280;63269;53.330;-6.288;2023-02-08T10:53:03;102649.22;;;20.55
74750;BMP280;63269;53.330;-6.288;2023-02-08T10:55:31;102649.22;;;20.55
74750;BMP280;63269;53.330;-6.288;2023-02-08T10:58:03;102640.09;;;20.56
74750;BMP280;63269;53.330;-6.288;2023-02-08T11:00:36;102644.28;;;20.61
74750;BMP280;63269;53.330;-6.288;2023-02-08T11:03:24;102644.28;;;20.61
74750;BMP280;63269;53.330;-6.288;2023-02-08T11:05:50;102637.78;;;20.66
74750;BMP280;63269;53.330;-6.288;2023-02-08T11:08:18;102637.78;;;20.66
74750;BMP280;63269;53.330;-6.288;2023-02-08T11:10:57;102647.66;;;20.72
74750;BMP280;63269;53.330;-6.288;2023-02-08T11:13:26;102646.13;;;20.71
74750;BMP280;63269;53.330;-6.288;2023-02-08T11:16:00;102639.66;;;20.76
74750;BMP280;63269;53.330;-6.288;2023-02-08T11:18:33;102639.66;;;20.76
74750;BMP280;63269;53.330;-6.288;2023-02-08T11:21:04;102636.22;;;20.83
74750;BMP280;63269;53.330;-6.288;2023-02-08T11:23:36;102629.34;;;20.85
74750;BMP280;63269;53.330;-6.288;2023-02-08T11:26:24;102606.47;;;20.88
74750;BMP280;63269;53.330;-6.288;2023-02-08T11:29:19;102606.47;;;20.88
74750;BMP280;63269;53.330;-6.288;2023-02-08T11:34:37;102599.59;;;20.90
74750;BMP280;63269;53.330;-6.288;2023-02-08T11:37:23;102601.88;;;20.92
74750;BMP280;63269;53.330;-6.288;2023-02-08T11:42:44;102590.44;;;20.98
74750;BMP280;63269;53.330;-6.288;2023-02-08T11:45:26;102590.44;;;20.98
74750;BMP280;63269;53.330;-6.288;2023-02-08T11:47:53;102583.56;;;20.97
74750;BMP280;63269;53.330;-6.288;2023-02-08T11:50:35;102575.19;;;20.99
74750;BMP280;63269;53.330;-6.288;2023-02-08T11:53:05;102562.56;;;21.03
74750;BMP280;63269;53.330;-6.288;2023-02-08T11:55:33;102570.53;;;21.07
74750;BMP280;63269;53.330;-6.288;2023-02-08T12:00:28;102547.69;;;21.06
74750;BMP280;63269;53.330;-6.288;2023-02-08T12:03:13;102556.06;;;21.08
74750;BMP280;63269;53.330;-6.288;2023-02-08T12:19:28;102520.19;;;21.16
74750;BMP280;63269;53.330;-6.288;2023-02-08T12:24:54;102509.84;;;21.18
74750;BMP280;63269;53.330;-6.288;2023-02-08T12:41:00;102466.75;;;21.23
74750;BMP280;63269;53.330;-6.288;2023-02-08T12:43:58;102466.75;;;21.23
74750;BMP280;63269;53.330;-6.288;2023-02-08T12:46:51;102452.63;;;21.23
74750;BMP280;63269;53.330;-6.288;2023-02-08T12:52:08;102452.63;;;21.23
74750;BMP280;63269;53.330;-6.288;2023-02-08T12:57:11;102440.00;;;21.27
74750;BMP280;63269;53.330;-6.288;2023-02-08T12:59:45;102437.31;;;21.27
74750;BMP280;63269;53.330;-6.288;2023-02-08T13:04:45;102420.53;;;21.30
74750;BMP280;63269;53.330;-6.288;2023-02-08T13:07:23;102415.94;;;21.30
74750;BMP280;63269;53.330;-6.288;2023-02-08T13:10:07;102405.69;;;21.29
74750;BMP280;63269;53.330;-6.288;2023-02-08T13:12:44;102405.69;;;21.29
74750;BMP280;63269;53.330;-6.288;2023-02-08T13:15:26;102408.69;;;21.31
74750;BMP280;63269;53.330;-6.288;2023-02-08T13:17:56;102408.69;;;21.31
74750;BMP280;63269;53.330;-6.288;2023-02-08T13:20:55;102414.09;;;21.27
74750;BMP280;63269;53.330;-6.288;2023-02-08T13:23:29;102414.09;;;21.27
74750;BMP280;63269;53.330;-6.288;2023-02-08T13:25:59;102420.56;;;21.26
74750;BMP280;63269;53.330;-6.288;2023-02-08T13:28:26;102420.56;;;21.26
74750;BMP280;63269;53.330;-6.288;2023-02-08T13:31:05;102409.56;;;21.20
74750;BMP280;63269;53.330;-6.288;2023-02-08T13:33:34;102393.19;;;21.18
74750;BMP280;63269;53.330;-6.288;2023-02-08T13:36:00;102384.81;;;21.16
74750;BMP280;63269;53.330;-6.288;2023-02-08T13:38:32;102385.19;;;21.15
74750;BMP280;63269;53.330;-6.288;2023-02-08T13:41:16;102385.19;;;21.15
74750;BMP280;63269;53.330;-6.288;2023-02-08T13:44:00;102377.25;;;21.11
74750;BMP280;63269;53.330;-6.288;2023-02-08T13:46:33;102377.25;;;21.11
74750;BMP280;63269;53.330;-6.288;2023-02-08T13:48:59;102369.25;;;21.08
74750;BMP280;63269;53.330;-6.288;2023-02-08T14:04:38;102330.91;;;20.91
74750;BMP280;63269;53.330;-6.288;2023-02-08T14:07:13;102309.94;;;20.89
74750;BMP280;63269;53.330;-6.288;2023-02-08T14:09:45;102296.28;;;20.87
74750;BMP280;63269;53.330;-6.288;2023-02-08T14:17:45;102300.88;;;20.83
74750;BMP280;63269;53.330;-6.288;2023-02-08T14:20:18;102308.50;;;20.81
74750;BMP280;63269;53.330;-6.288;2023-02-08T14:22:50;102298.97;;;20.80
74750;BMP280;63269;53.330;-6.288;2023-02-08T14:25:23;102294.78;;;20.79
74750;BMP280;63269;53.330;-6.288;2023-02-08T14:27:49;102297.47;;;20.75
74750;BMP280;63269;53.330;-6.288;2023-02-08T14:32:44;102290.28;;;20.72
74750;BMP280;63269;53.330;-6.288;2023-02-08T14:37:36;102273.91;;;20.70
74750;BMP280;63269;53.330;-6.288;2023-02-08T14:45:37;102286.13;;;20.68
74750;BMP280;63269;53.330;-6.288;2023-02-08T14:48:36;102286.06;;;20.71
74750;BMP280;63269;53.330;-6.288;2023-02-08T15:03:54;102268.06;;;20.86
74750;BMP280;63269;53.330;-6.288;2023-02-08T15:09:02;102252.38;;;20.92
74750;BMP280;63269;53.330;-6.288;2023-02-08T15:11:30;102263.41;;;20.94
74750;BMP280;63269;53.330;-6.288;2023-02-08T15:13:59;102248.94;;;20.95
74750;BMP280;63269;53.330;-6.288;2023-02-08T15:16:34;102255.31;;;21.01
74750;BMP280;63269;53.330;-6.288;2023-02-08T15:19:02;102257.59;;;21.03
74750;BMP280;63269;53.330;-6.288;2023-02-08T15:21:29;102257.59;;;21.03
74750;BMP280;63269;53.330;-6.288;2023-02-08T15:26:25;102250.38;;;21.03
74750;BMP280;63269;53.330;-6.288;2023-02-08T15:28:51;102265.94;;;21.08
74750;BMP280;63269;53.330;-6.288;2023-02-08T15:31:19;102256.38;;;21.11
74750;BMP280;63269;53.330;-6.288;2023-02-08T15:33:45;102270.50;;;21.11
74750;BMP280;63269;53.330;-6.288;2023-02-08T15:36:17;102270.50;;;21.11
74750;BMP280;63269;53.330;-6.288;2023-02-08T15:38:45;102270.09;;;21.13
74750;BMP280;63269;53.330;-6.288;2023-02-08T15:41:13;102274.66;;;21.16
74750;BMP280;63269;53.330;-6.288;2023-02-08T15:43:40;102274.66;;;21.16
74750;BMP280;63269;53.330;-6.288;2023-02-08T15:46:19;102267.78;;;21.15
74750;BMP280;63269;53.330;-6.288;2023-02-08T15:48:46;102279.94;;;21.19
74750;BMP280;63269;53.330;-6.288;2023-02-08T15:51:13;102281.47;;;21.20
74750;BMP280;63269;53.330;-6.288;2023-02-08T15:53:43;102284.50;;;21.23
74750;BMP280;63269;53.330;-6.288;2023-02-08T15:56:16;102294.78;;;21.24
74750;BMP280;63269;53.330;-6.288;2023-02-08T15:58:46;102294.78;;;21.24
74750;BMP280;63269;53.330;-6.288;2023-02-08T16:01:18;102286.34;;;21.26
74750;BMP280;63269;53.330;-6.288;2023-02-08T16:03:50;102286.34;;;21.26
74750;BMP280;63269;53.330;-6.288;2023-02-08T16:06:22;102296.63;;;21.27
74750;BMP280;63269;53.330;-6.288;2023-02-08T16:08:50;102296.63;;;21.27
74750;BMP280;63269;53.330;-6.288;2023-02-08T16:11:22;102290.16;;;21.28
74750;BMP280;63269;53.330;-6.288;2023-02-08T16:13:50;102289.38;;;21.28